Time;durP1;ratioP1;P1;durP2;ratioP2;P2;SDS_P1;SDS_P2;PMS_P1;PMS_P2;Temp;Humidity;BMP_temperature;BMP_pressure;BME280_temperature;BME280_humidity;BME280_pressure;Samples;Min_cycle;Max_cycle;Signal;HPM_P1;HPM_P2
2022/09/08 00:00:18;;;;;;;8.32;4.90;;;19.80;99.90;;;19.11;100.00;96778.31;4955182;29;20508;-81
2022/09/08 00:02:44;;;;;;;8.65;5.07;;;19.80;99.90;;;19.08;100.00;96776.31;4954697;29;20473;-81
2022/09/08 00:05:15;;;;;;;11.60;5.43;;;19.80;99.90;;;19.12;100.00;96771.84;4954747;28;20402;-81
2022/09/08 00:07:42;;;;;;;9.85;5.50;;;19.80;99.90;;;19.13;100.00;96772.66;4954968;29;20465;-80
2022/09/08 00:10:11;;;;;;;7.05;4.18;;;19.70;99.90;;;19.03;100.00;96770.28;4954823;29;20406;-81
2022/09/08 00:12:39;;;;;;;6.40;5.20;;;19.60;99.90;;;18.90;100.00;96762.13;4952435;29;20557;-80
2022/09/08 00:15:06;;;;;;;8.88;5.75;;;19.50;99.90;;;18.86;100.00;96755.06;4954564;28;20915;-81
2022/09/08 00:17:32;;;;;;;8.23;5.57;;;19.50;99.90;;;18.87;100.00;96751.25;4937580;29;20785;-80
2022/09/08 00:19:58;;;;;;;15.27;6.20;;;19.50;99.90;;;18.93;100.00;96753.47;4954760;29;20434;-80
2022/09/08 00:22:25;;;;;;;8.30;5.68;;;19.60;99.90;;;18.94;100.00;96748.88;4954510;29;20410;-80
2022/09/08 00:24:51;;;;;;;8.13;5.03;;;19.60;99.90;;;18.94;100.00;96751.56;4954116;28;20795;-80
2022/09/08 00:27:17;;;;;;;10.07;6.15;;;19.60;99.90;;;18.89;100.00;96755.19;4954631;29;20413;-80
2022/09/08 00:29:43;;;;;;;11.90;5.90;;;19.50;99.90;;;18.93;100.00;96761.50;4937417;29;20545;-80
2022/09/08 00:32:10;;;;;;;7.43;5.90;;;19.60;99.90;;;18.90;100.00;96767.50;4954432;29;20426;-80
2022/09/08 00:34:36;;;;;;;13.52;6.57;;;19.60;99.90;;;18.91;100.00;96765.59;4952727;28;20418;-80
2022/09/08 00:37:02;;;;;;;8.80;6.03;;;19.60;99.90;;;18.89;100.00;96773.97;4954415;28;20492;-80
2022/09/08 00:39:29;;;;;;;10.43;7.00;;;19.60;99.90;;;18.90;100.00;96778.22;4954397;29;20821;-80
2022/09/08 00:41:55;;;;;;;11.07;6.50;;;19.60;99.90;;;18.85;100.00;96783.78;4951876;29;20417;-81
2022/09/08 00:44:40;;;;;;;8.23;6.43;;;19.50;99.90;;;18.81;100.00;96774.78;4953920;29;20753;-80
2022/09/08 00:47:14;;;;;;;11.85;7.28;;;19.50;99.90;;;18.85;100.00;96780.31;4953162;29;20497;-80
2022/09/08 00:49:41;;;;;;;9.52;6.07;;;19.60;99.90;;;18.85;100.00;96801.75;4952379;29;20468;-79
2022/09/08 00:52:08;;;;;;;9.45;6.00;;;19.50;99.90;;;18.85;100.00;96832.03;4954239;29;20416;-80
2022/09/08 00:54:36;;;;;;;8.40;5.35;;;19.50;99.90;;;18.82;100.00;96829.19;4953502;29;20496;-80
2022/09/08 00:57:02;;;;;;;9.65;5.57;;;19.50;99.90;;;18.76;100.00;96831.25;4954034;28;20457;-80
2022/09/08 00:59:31;;;;;;;10.40;6.32;;;19.40;99.90;;;18.75;100.00;96820.84;4953976;29;20406;-80
2022/09/08 01:01:57;;;;;;;8.53;6.13;;;19.40;99.90;;;18.75;100.00;96827.00;4951733;29;20410;-80
2022/09/08 01:04:23;;;;;;;11.33;7.07;;;19.40;99.90;;;18.75;100.00;96831.56;4953554;29;20456;-79
2022/09/08 01:12:43;;;;;;;13.13;8.60;;;19.40;99.90;;;18.72;100.00;96829.53;4953655;29;20409;-79
2022/09/08 01:15:11;;;;;;;12.63;8.40;;;19.40;99.90;;;18.75;100.00;96831.56;4953458;28;20424;-80
2022/09/08 01:17:38;;;;;;;15.48;9.98;;;19.50;99.90;;;18.76;100.00;96825.09;4951381;29;20467;-80
2022/09/08 01:20:09;;;;;;;16.33;10.25;;;19.50;99.90;;;18.74;100.00;96827.31;4953531;29;20765;-79
2022/09/08 01:23:10;;;;;;;15.68;10.60;;;19.50;99.90;;;18.73;100.00;96823.03;4950963;29;20410;-80
2022/09/08 01:26:08;;;;;;;16.20;9.70;;;19.50;99.90;;;18.76;100.00;96830.47;4951097;28;20502;-79
2022/09/08 01:28:40;;;;;;;22.27;11.93;;;19.50;99.90;;;18.67;100.00;96824.31;4953269;29;20508;-80
2022/09/08 01:31:07;;;;;;;22.33;10.65;;;19.40;99.90;;;18.73;100.00;96817.69;4953371;29;20402;-80
2022/09/08 01:33:34;;;;;;;21.05;11.77;;;19.40;99.90;;;18.66;100.00;96818.16;4952890;29;20421;-80
2022/09/08 01:36:07;;;;;;;18.55;10.70;;;19.40;99.90;;;18.68;100.00;96823.22;4953317;28;20402;-79
2022/09/08 01:38:33;;;;;;;21.10;10.80;;;19.30;99.90;;;18.63;100.00;96808.09;4953108;29;20456;-79
2022/09/08 01:40:59;;;;;;;19.90;12.33;;;19.30;99.90;;;18.58;100.00;96808.22;4953310;29;20459;-79
2022/09/08 01:43:25;;;;;;;23.93;12.20;;;19.30;99.90;;;18.60;100.00;96815.97;4952717;29;20497;-80
2022/09/08 01:45:56;;;;;;;22.03;13.07;;;19.30;99.90;;;18.61;100.00;96810.28;4952769;28;20484;-79
2022/09/08 01:48:22;;;;;;;20.92;13.15;;;19.30;99.90;;;18.61;100.00;96807.59;4953201;29;21116;-80
2022/09/08 01:50:48;;;;;;;25.08;14.10;;;19.30;99.90;;;18.59;100.00;96809.81;4953052;29;20452;-79
2022/09/08 01:53:14;;;;;;;23.67;14.20;;;19.30;99.90;;;18.59;100.00;96809.03;4952643;29;20535;-79
2022/09/08 01:55:40;;;;;;;21.80;13.77;;;19.30;99.90;;;18.69;100.00;96808.72;4953089;28;20472;-80
2022/09/08 01:58:06;;;;;;;26.25;15.63;;;19.30;99.90;;;18.51;100.00;96805.22;4953026;29;20426;-80
2022/09/08 02:00:32;;;;;;;29.30;16.08;;;19.20;99.90;;;18.51;100.00;96808.69;4952939;29;20453;-80
2022/09/08 02:02:59;;;;;;;31.70;16.23;;;19.20;99.90;;;18.53;100.00;96797.66;4952534;29;20418;-80
2022/09/08 02:05:25;;;;;;;28.05;16.00;;;19.20;99.90;;;18.58;100.00;96792.16;4967579;23;20468;-78
2022/09/08 02:07:52;;;;;;;26.58;15.52;;;19.30;99.90;;;18.53;100.00;96785.03;4966616;28;20993;-78
2022/09/08 02:10:18;;;;;;;30.23;15.23;;;19.20;99.90;;;18.58;100.00;96783.31;4970084;28;20466;-78
2022/09/08 02:12:43;;;;;;;33.23;16.97;;;19.30;99.90;;;18.63;100.00;96781.28;4971402;28;20420;-78
2022/09/08 02:15:11;;;;;;;22.30;13.47;;;19.20;99.90;;;18.56;100.00;96780.97;4972082;28;20503;-78
2022/09/08 02:17:37;;;;;;;17.27;10.65;;;19.20;99.90;;;18.62;100.00;96778.91;4980857;28;20408;-78
2022/09/08 02:20:06;;;;;;;18.50;10.50;;;19.20;99.90;;;18.58;100.00;96767.22;4982506;28;20489;-78
2022/09/08 02:22:32;;;;;;;19.27;11.50;;;19.20;99.90;;;18.50;100.00;96774.16;4981265;28;20408;-78
2022/09/08 02:24:58;;;;;;;17.67;9.60;;;19.20;99.90;;;18.48;100.00;96771.81;4980543;28;20413;-78
2022/09/08 02:27:24;;;;;;;18.73;10.63;;;19.10;99.90;;;18.48;100.00;96765.66;4982544;28;20414;-78
2022/09/08 02:29:50;;;;;;;14.00;8.50;;;19.10;99.90;;;18.55;100.00;96768.63;4981470;28;20426;-78
2022/09/08 02:32:16;;;;;;;15.53;8.77;;;19.20;99.90;;;18.43;100.00;96765.78;4980871;28;20407;-78
2022/09/08 02:34:41;;;;;;;20.17;9.63;;;19.10;99.90;;;18.39;100.00;96756.81;4982180;28;20501;-78
2022/09/08 02:37:09;;;;;;;18.67;9.75;;;19.10;99.90;;;18.44;100.00;96752.09;4980846;28;20408;-78
2022/09/08 02:39:35;;;;;;;12.75;7.63;;;19.10;99.90;;;18.38;100.00;96749.88;4980977;28;20414;-78
2022/09/08 02:42:00;;;;;;;12.38;7.40;;;19.00;99.90;;;18.37;100.00;96745.63;4982261;28;20402;-77
2022/09/08 02:44:27;;;;;;;10.43;6.65;;;19.00;99.90;;;18.27;100.00;96745.97;4980187;28;20403;-77
2022/09/08 02:46:53;;;;;;;12.90;7.07;;;18.90;99.90;;;18.26;100.00;96750.53;4981257;28;20965;-77
2022/09/08 02:49:18;;;;;;;14.18;7.72;;;18.90;99.90;;;18.25;100.00;96745.47;4982023;28;20925;-78
2022/09/08 02:51:44;;;;;;;13.13;6.85;;;18.90;99.90;;;18.27;100.00;96746.72;4980047;28;20443;-78
2022/09/08 02:54:12;;;;;;;13.10;6.75;;;18.90;99.90;;;18.33;100.00;96740.13;4980781;28;20414;-77
2022/09/08 02:56:38;;;;;;;10.48;5.03;;;19.00;99.90;;;18.33;100.00;96750.84;4981526;28;20419;-78
2022/09/08 02:59:04;;;;;;;9.85;6.25;;;19.00;99.90;;;18.20;100.00;96735.69;4979297;28;20408;-77
2022/09/08 03:01:29;;;;;;;10.73;5.72;;;18.90;99.90;;;18.23;100.00;96740.44;4981379;28;20648;-78
2022/09/08 03:03:55;;;;;;;11.80;5.73;;;18.90;99.90;;;18.21;100.00;96739.94;4980959;28;20408;-78
2022/09/08 03:06:21;;;;;;;11.48;6.30;;;18.90;99.90;;;18.18;100.00;96744.06;4979572;28;20499;-78
2022/09/08 03:08:47;;;;;;;11.93;6.63;;;18.90;99.90;;;18.16;100.00;96743.59;4980107;28;20426;-77
2022/09/08 03:11:16;;;;;;;12.40;6.28;;;18.80;99.90;;;18.17;100.00;96747.06;4981071;28;20416;-78
2022/09/08 03:13:42;;;;;;;11.73;5.93;;;18.90;99.90;;;18.16;100.00;96740.13;4979421;28;20962;-77
2022/09/08 03:16:08;;;;;;;11.43;5.95;;;18.90;99.90;;;18.19;100.00;96740.25;4981165;28;20414;-77
2022/09/08 03:18:34;;;;;;;10.93;5.63;;;18.80;99.90;;;18.16;100.00;96735.56;4981188;28;20408;-77
2022/09/08 03:21:03;;;;;;;8.53;4.80;;;18.80;99.90;;;18.14;100.00;96742.31;4982443;28;20413;-77
2022/09/08 03:23:31;;;;;;;10.45;5.30;;;18.80;99.90;;;18.11;100.00;96738.41;4978487;28;20415;-78
2022/09/08 03:26:01;;;;;;;9.27;5.30;;;18.80;99.90;;;18.14;100.00;96747.69;4981289;28;20408;-77
2022/09/08 03:28:29;;;;;;;8.07;4.60;;;18.80;99.90;;;18.05;100.00;96746.88;4982408;28;20433;-77
2022/09/08 03:30:54;;;;;;;9.05;5.15;;;18.70;99.90;;;18.02;100.00;96744.84;4982521;28;20425;-78
2022/09/08 03:33:21;;;;;;;8.23;5.20;;;18.70;99.90;;;18.03;100.00;96743.75;4983870;28;20402;-77
2022/09/08 03:35:47;;;;;;;10.90;5.60;;;18.70;99.90;;;18.04;100.00;96742.66;4981305;28;20446;-78
2022/09/08 03:38:14;;;;;;;9.07;5.22;;;18.70;99.90;;;18.03;100.00;96746.44;4980845;28;20809;-78
2022/09/08 03:40:41;;;;;;;10.13;4.50;;;18.70;99.90;;;17.98;100.00;96741.19;4979679;28;20438;-78
2022/09/08 03:43:08;;;;;;;8.75;4.78;;;18.70;99.90;;;18.03;100.00;96744.53;4979403;28;20412;-77
2022/09/08 03:45:35;;;;;;;7.75;4.20;;;18.70;99.90;;;18.04;100.00;96750.69;4987510;28;20794;-77
2022/09/08 03:48:02;;;;;;;10.00;4.45;;;18.70;99.90;;;17.92;100.00;96737.91;4979548;28;20415;-76
2022/09/08 03:50:27;;;;;;;6.22;3.83;;;18.60;99.90;;;17.87;100.00;96745.31;4981069;28;20449;-77
2022/09/08 03:52:53;;;;;;;8.00;4.53;;;18.60;99.90;;;17.82;100.00;96735.50;4980093;28;20498;-77
2022/09/08 03:55:19;;;;;;;9.33;4.60;;;18.50;99.90;;;17.77;100.00;96741.81;4979675;28;20907;-77
2022/09/08 03:57:46;;;;;;;6.17;3.80;;;18.50;99.90;;;17.79;100.00;96741.50;4979354;28;20495;-77
2022/09/08 04:00:12;;;;;;;9.18;4.78;;;18.50;99.90;;;17.74;100.00;96737.06;4980626;28;20402;-77
2022/09/08 04:02:40;;;;;;;7.88;4.20;;;18.40;99.90;;;17.82;100.00;96737.44;4987821;28;20409;-78
2022/09/08 04:05:07;;;;;;;7.20;3.95;;;18.50;99.90;;;17.81;100.00;96736.63;4976595;28;20934;-78
2022/09/08 04:07:34;;;;;;;6.75;2.75;;;18.50;99.90;;;17.63;100.00;96738.47;4980043;28;20433;-78
2022/09/08 04:10:01;;;;;;;6.63;3.83;;;18.30;99.90;;;17.54;100.00;96743.00;4983993;28;20430;-77
2022/09/08 04:12:28;;;;;;;8.68;4.45;;;18.20;99.90;;;17.45;100.00;96731.47;4984450;28;20772;-77
2022/09/08 04:14:54;;;;;;;10.07;4.43;;;18.20;99.90;;;17.46;100.00;96738.41;4983745;28;20435;-77
2022/09/08 04:17:22;;;;;;;6.65;3.70;;;18.20;99.90;;;17.32;100.00;96738.53;4983369;28;20408;-77
2022/09/08 04:19:50;;;;;;;6.77;4.23;;;18.00;99.90;;;17.33;100.00;96733.97;4987915;28;20399;-77
2022/09/08 04:22:17;;;;;;;13.90;4.30;;;18.00;99.90;;;17.32;100.00;96738.53;4986533;28;20884;-77
2022/09/08 04:24:43;;;;;;;7.30;4.75;;;18.00;99.90;;;17.24;100.00;96741.94;4982394;28;20408;-78
2022/09/08 04:27:09;;;;;;;12.50;5.60;;;18.00;99.90;;;17.26;100.00;96737.09;4984127;28;20457;-77
2022/09/08 04:29:35;;;;;;;9.17;5.20;;;18.00;99.90;;;17.27;100.00;96741.34;4990752;28;20433;-78
2022/09/08 04:32:02;;;;;;;11.18;5.47;;;18.00;99.90;;;17.31;100.00;96744.19;4982597;28;20508;-78
2022/09/08 04:34:28;;;;;;;13.07;5.32;;;18.00;99.90;;;17.36;100.00;96746.72;4983656;28;20405;-79
2022/09/08 04:36:55;;;;;;;7.28;4.20;;;18.00;99.90;;;17.24;100.00;96744.63;4981844;28;20417;-77
2022/09/08 04:39:21;;;;;;;8.68;4.50;;;17.90;99.90;;;17.26;100.00;96747.00;4984524;28;20407;-77
2022/09/08 04:41:47;;;;;;;13.32;5.05;;;17.90;99.90;;;17.19;100.00;96746.66;4982701;28;20479;-77
2022/09/08 04:44:13;;;;;;;14.98;5.72;;;17.90;99.90;;;17.16;100.00;96758.75;4983040;28;20417;-77
2022/09/08 04:46:39;;;;;;;14.80;4.80;;;17.90;99.90;;;17.15;100.00;96751.03;4984282;28;20454;-77
2022/09/08 04:49:06;;;;;;;9.85;5.00;;;17.90;99.90;;;17.11;100.00;96750.09;4982137;28;20473;-78
2022/09/08 04:51:32;;;;;;;7.22;4.68;;;17.80;99.90;;;17.10;100.00;96745.81;4983309;28;20411;-76
2022/09/08 04:54:02;;;;;;;11.25;5.10;;;17.70;99.90;;;17.09;100.00;96755.72;4983399;28;20412;-77
2022/09/08 04:56:28;;;;;;;11.23;5.65;;;17.80;99.90;;;17.03;100.00;96760.44;4982131;28;20567;-77
2022/09/08 04:58:55;;;;;;;10.68;5.70;;;17.80;99.90;;;17.03;100.00;96755.09;4982913;28;20442;-77
2022/09/08 05:01:24;;;;;;;14.07;6.10;;;17.80;99.90;;;17.03;100.00;96765.00;4984013;28;20418;-77
2022/09/08 05:03:54;;;;;;;11.90;5.75;;;17.80;99.90;;;17.06;100.00;96761.72;4981290;28;21544;-76
2022/09/08 05:06:21;;;;;;;9.82;5.55;;;17.80;99.90;;;17.01;100.00;96765.28;4984873;28;20419;-78
2022/09/08 05:08:50;;;;;;;11.65;5.60;;;17.70;99.90;;;17.06;100.00;96764.38;4987058;28;20423;-78
2022/09/08 05:11:19;;;;;;;13.93;6.17;;;17.80;99.90;;;17.13;100.00;96775.44;4983841;28;20418;-78
2022/09/08 05:13:45;;;;;;;11.85;5.40;;;17.80;99.90;;;17.06;100.00;96782.31;4983259;28;20449;-78
2022/09/08 05:16:13;;;;;;;12.52;5.88;;;17.70;99.90;;;16.99;100.00;96785.41;4983926;28;20421;-78
2022/09/08 05:18:40;;;;;;;14.88;6.85;;;17.70;99.90;;;16.99;100.00;96788.06;4982242;28;20493;-78
2022/09/08 05:21:08;;;;;;;13.88;6.32;;;17.70;99.90;;;16.99;100.00;96793.41;4978262;28;20410;-79
2022/09/08 05:23:35;;;;;;;11.13;5.97;;;17.70;99.90;;;16.93;100.00;96794.66;4986585;28;20402;-78
2022/09/08 05:26:06;;;;;;;12.02;6.13;;;17.70;99.90;;;16.95;100.00;96806.63;4987626;28;20489;-79
2022/09/08 05:28:36;;;;;;;11.13;5.93;;;17.70;99.90;;;16.94;100.00;96807.72;4983934;28;20429;-80
2022/09/08 05:31:04;;;;;;;10.05;5.15;;;17.70;99.90;;;17.03;100.00;96808.56;4979805;28;20909;-80
2022/09/08 05:33:31;;;;;;;11.50;5.43;;;17.60;99.90;;;16.87;100.00;96809.25;4980318;28;20470;-79
2022/09/08 05:35:57;;;;;;;15.40;6.45;;;17.50;99.90;;;16.85;100.00;96806.06;4981167;28;20407;-79
2022/09/08 05:38:24;;;;;;;21.50;6.85;;;17.50;99.90;;;16.83;100.00;96825.13;4981039;28;20412;-79
2022/09/08 05:40:50;;;;;;;15.98;6.50;;;17.60;99.90;;;16.94;100.00;96831.00;4975443;28;20400;-79
2022/09/08 05:43:17;;;;;;;11.77;6.03;;;17.60;99.90;;;16.92;100.00;96830.50;4986893;28;20458;-80
2022/09/08 05:45:45;;;;;;;15.20;6.72;;;17.60;99.90;;;17.00;100.00;96832.44;4983202;28;20411;-75
2022/09/08 05:48:12;;;;;;;12.07;5.90;;;17.70;99.90;;;16.97;100.00;96833.06;4981548;28;20456;-77
2022/09/08 05:50:41;;;;;;;11.73;6.25;;;17.60;99.90;;;16.86;100.00;96837.84;4976265;28;20534;-77
2022/09/08 05:53:07;;;;;;;8.40;5.22;;;17.60;99.90;;;17.00;100.00;96840.47;4975107;28;20512;-77
2022/09/08 05:55:33;;;;;;;14.75;6.47;;;17.60;99.90;;;16.92;100.00;96846.53;4984036;28;20493;-77
2022/09/08 05:57:59;;;;;;;14.33;6.63;;;17.70;99.90;;;16.89;100.00;96847.94;4983692;28;20921;-76
2022/09/08 06:00:25;;;;;;;11.77;6.10;;;17.60;99.90;;;16.88;100.00;96854.38;4982432;28;20418;-73
2022/09/08 06:02:53;;;;;;;12.40;5.18;;;17.60;99.90;;;16.99;100.00;96854.91;4980723;28;20408;-73
2022/09/08 06:05:20;;;;;;;9.95;5.25;;;17.60;99.90;;;16.92;100.00;96863.38;4980552;28;20403;-76
2022/09/08 06:07:47;;;;;;;8.48;4.60;;;17.60;99.90;;;16.88;100.00;96861.63;4980233;28;20423;-76
2022/09/08 06:10:14;;;;;;;7.53;3.95;;;17.60;99.90;;;16.91;100.00;96872.50;4981427;28;20526;-76
2022/09/08 06:12:40;;;;;;;8.48;4.53;;;17.60;99.90;;;16.82;100.00;96876.19;4983503;28;20437;-73
2022/09/08 06:15:08;;;;;;;9.18;3.88;;;17.50;99.90;;;16.73;100.00;96873.47;4990133;28;20414;-73
2022/09/08 06:17:34;;;;;;;5.55;3.03;;;17.40;99.90;;;16.71;100.00;96862.28;4991504;28;20438;-73
2022/09/08 06:20:03;;;;;;;9.73;3.58;;;17.30;99.90;;;16.55;100.00;96861.00;4991731;28;20497;-73
2022/09/08 06:22:29;;;;;;;6.80;3.60;;;17.20;99.90;;;16.47;100.00;96867.84;4991564;28;20402;-74
2022/09/08 06:24:55;;;;;;;7.20;3.63;;;17.20;99.90;;;16.43;100.00;96866.09;4991119;28;20406;-74
2022/09/08 06:27:31;;;;;;;10.23;4.22;;;17.20;99.90;;;16.45;100.00;96870.06;4991664;28;20493;-74
2022/09/08 06:30:04;;;;;;;8.70;4.10;;;17.20;99.90;;;16.35;100.00;96862.25;4991446;28;20418;-75
2022/09/08 06:32:36;;;;;;;13.55;4.45;;;17.10;99.90;;;16.48;100.00;96864.09;4991290;28;20453;-75
2022/09/08 06:35:11;;;;;;;6.13;3.17;;;17.20;99.90;;;16.39;100.00;96868.56;4991216;28;20405;-75
2022/09/08 06:37:44;;;;;;;5.75;3.10;;;17.10;99.90;;;16.24;100.00;96874.22;4991394;28;20414;-76
2022/09/08 06:40:16;;;;;;;7.40;2.80;;;16.90;99.90;;;16.05;100.00;96871.69;4985618;28;20422;-76
2022/09/08 06:42:49;;;;;;;6.22;3.30;;;16.70;99.90;;;15.84;100.00;96870.53;4982453;28;20435;-77
2022/09/08 06:45:22;;;;;;;7.33;3.20;;;16.60;99.90;;;15.88;100.00;96879.50;4989842;28;20841;-76
2022/09/08 06:48:01;;;;;;;6.78;3.30;;;16.60;99.90;;;15.87;100.00;96888.59;4983832;28;20402;-76
2022/09/08 06:50:33;;;;;;;9.80;3.28;;;16.60;99.90;;;15.96;100.00;96883.38;4991216;28;20452;-76
2022/09/08 06:53:06;;;;;;;10.05;3.60;;;16.60;99.90;;;15.90;100.00;96884.56;4990927;28;20489;-76
2022/09/08 06:55:40;;;;;;;7.65;4.20;;;16.60;99.90;;;15.93;100.00;96873.31;4991120;28;20411;-75
2022/09/08 06:58:20;;;;;;;5.97;3.47;;;16.70;99.90;;;15.93;100.00;96879.44;4991258;28;20418;-77
2022/09/08 07:00:54;;;;;;;8.50;3.70;;;16.70;99.90;;;16.12;100.00;96887.31;4991312;28;20407;-76
2022/09/08 07:03:54;;;;;;;8.30;3.80;;;16.80;99.90;;;16.05;100.00;96887.72;4990718;28;20406;-76
2022/09/08 07:06:27;;;;;;;5.85;3.20;;;16.80;99.90;;;15.97;100.00;96890.28;4990983;28;20484;-73
2022/09/08 07:09:10;;;;;;;8.77;3.37;;;16.70;99.90;;;16.13;100.00;96891.56;4990927;28;20422;-73
2022/09/08 07:11:50;;;;;;;9.85;3.55;;;16.80;99.90;;;16.06;100.00;96891.97;4990995;28;20410;-76
2022/09/08 07:15:03;;;;;;;9.82;4.05;;;16.80;99.90;;;16.14;100.00;96893.16;4990460;28;20402;-76
2022/09/08 07:17:36;;;;;;;8.30;3.40;;;16.80;99.90;;;16.22;100.00;96892.47;4990181;28;20414;-82
2022/09/08 07:20:08;;;;;;;9.02;4.22;;;17.00;99.90;;;16.32;100.00;96902.91;4990861;28;20765;-78
2022/09/08 07:22:47;;;;;;;6.55;3.53;;;17.10;99.90;;;16.38;100.00;96895.59;4990968;28;20510;-81
2022/09/08 07:25:26;;;;;;;9.27;3.80;;;17.10;99.90;;;16.51;100.00;96895.56;4990857;28;20530;-82
2022/09/08 07:28:01;;;;;;;8.48;3.90;;;17.30;99.90;;;16.64;100.00;96889.41;4990897;28;20430;-82
2022/09/08 07:30:27;;;;;;;9.50;3.90;;;17.30;99.90;;;16.76;100.00;96893.47;4990751;28;20422;-77
2022/09/08 07:33:01;;;;;;;9.82;3.22;;;17.50;99.90;;;16.80;100.00;96889.88;4990383;28;20427;-78
2022/09/08 07:35:44;;;;;;;7.57;3.40;;;17.50;99.90;;;16.78;100.00;96893.94;4990910;28;20420;-78
2022/09/08 07:38:19;;;;;;;10.30;3.75;;;17.40;99.90;;;16.82;100.00;96886.91;4991283;28;20919;-78
2022/09/08 07:40:49;;;;;;;7.20;3.20;;;17.50;99.90;;;16.85;100.00;96897.75;4990752;28;20407;-76
2022/09/08 07:43:16;;;;;;;7.53;3.10;;;17.50;99.90;;;16.97;100.00;96907.94;4990503;28;20410;-76
2022/09/08 07:45:48;;;;;;;5.30;2.25;;;17.60;99.90;;;16.83;100.00;96904.53;4993063;28;20895;-77
2022/09/08 07:48:26;;;;;;;4.95;2.15;;;17.50;99.90;;;16.91;100.00;96909.94;4994469;28;20409;-77
2022/09/08 07:51:01;;;;;;;5.80;2.40;;;17.50;99.90;;;16.96;100.00;96904.47;4994567;28;20449;-76
2022/09/08 07:53:55;;;;;;;3.30;2.13;;;17.60;99.90;;;17.06;100.00;96908.00;4994004;28;20768;-76
2022/09/08 07:56:30;;;;;;;4.50;2.20;;;17.70;99.90;;;17.06;100.00;96921.38;4994420;28;20410;-77
2022/09/08 07:59:15;;;;;;;9.38;2.50;;;17.70;99.90;;;17.01;100.00;96917.69;4994518;28;20493;-76
2022/09/08 08:01:52;;;;;;;6.90;2.28;;;17.70;99.90;;;16.87;100.00;96916.97;4994429;28;20398;-76
2022/09/08 08:04:50;;;;;;;4.03;2.20;;;17.50;99.90;;;16.85;100.00;96911.13;4993629;28;20406;-75
2022/09/08 08:07:23;;;;;;;3.78;2.20;;;17.50;99.90;;;16.86;100.00;96923.41;4993605;23;20494;-79
2022/09/08 08:09:58;;;;;;;3.08;2.05;;;17.50;99.90;;;16.87;100.00;96914.28;4972990;28;20419;-78
2022/09/08 08:12:35;;;;;;;3.90;2.35;;;17.60;99.90;;;16.97;100.00;96913.28;4973924;28;20431;-78
2022/09/08 08:15:12;;;;;;;5.83;2.33;;;17.60;99.90;;;17.10;100.00;96919.66;4956864;28;20443;-78
2022/09/08 08:17:47;;;;;;;6.25;2.00;;;17.70;99.90;;;17.07;100.00;96918.38;4991478;28;20431;-78
2022/09/08 08:20:39;;;;;;;4.88;2.17;;;17.70;99.90;;;17.09;100.00;96923.41;4993865;28;20461;-79
2022/09/08 08:23:36;;;;;;;5.22;2.03;;;17.60;99.90;;;17.21;100.00;96921.00;4993356;28;20406;-80
2022/09/08 08:26:18;;;;;;;3.73;1.90;;;17.90;99.90;;;17.27;100.00;96925.13;4993707;28;20398;-79
2022/09/08 08:28:45;;;;;;;5.13;2.13;;;17.80;99.90;;;17.33;100.00;96931.94;4993530;28;20429;-78
2022/09/08 08:31:30;;;;;;;3.53;1.70;;;17.90;99.90;;;17.14;100.00;96928.66;4993834;28;20760;-79
2022/09/08 08:34:04;;;;;;;5.47;2.20;;;17.70;99.90;;;17.31;100.00;96934.91;4993108;28;20398;-80
2022/09/08 08:36:36;;;;;;;4.07;1.77;;;17.90;99.90;;;17.39;100.00;96936.06;4993555;28;20503;-78
2022/09/08 08:39:12;;;;;;;3.00;1.30;;;18.00;99.90;;;17.43;100.00;96942.38;4993511;28;20399;-78
2022/09/08 08:42:01;;;;;;;4.22;1.67;;;18.00;99.90;;;17.53;100.00;96949.34;4993573;28;20403;-78
2022/09/08 08:44:51;;;;;;;2.05;1.55;;;18.20;99.90;;;17.56;100.00;96946.88;4992986;28;20704;-78
2022/09/08 08:47:37;;;;;;;3.88;1.80;;;18.10;99.90;;;17.73;100.00;96954.25;4993326;28;20402;-78
2022/09/08 08:50:43;;;;;;;3.05;1.45;;;18.30;99.90;;;17.77;100.00;96956.00;4993298;28;20422;-77
2022/09/08 08:54:09;;;;;;;3.53;1.50;;;18.40;99.90;;;17.91;100.00;96955.91;4992972;28;20406;-78
2022/09/08 08:56:39;;;;;;;3.50;1.52;;;18.50;99.90;;;17.91;100.00;96952.41;4957567;28;20430;-78
2022/09/08 08:59:57;;;;;;;3.58;1.42;;;18.50;99.90;;;17.85;100.00;96962.47;4993275;28;20409;-77
2022/09/08 09:02:54;;;;;;;2.03;1.48;;;18.50;99.90;;;17.92;100.00;96962.84;4965150;28;20417;-78
2022/09/08 09:05:46;;;;;;;3.50;1.48;;;18.50;99.90;;;17.78;100.00;96964.81;4993052;28;20402;-78
2022/09/08 09:09:21;;;;;;;3.38;1.52;;;18.40;99.90;;;17.73;100.00;96967.63;4993230;28;20430;-78
2022/09/08 09:12:06;;;;;;;3.13;1.20;;;18.30;99.90;;;17.76;100.00;96972.34;4933022;29;20762;-79
2022/09/08 09:14:53;;;;;;;2.67;1.45;;;18.40;99.90;;;17.69;100.00;96970.13;4932439;29;20444;-79
2022/09/08 09:17:46;;;;;;;4.97;1.23;;;18.40;99.90;;;17.46;100.00;96975.75;4989639;28;20517;-79
2022/09/08 09:20:33;;;;;;;2.47;1.30;;;18.10;99.90;;;17.46;100.00;96970.41;4993028;28;20406;-79
2022/09/08 09:23:13;;;;;;;3.60;1.25;;;18.10;99.90;;;17.41;100.00;96965.97;4992448;28;20807;-79
2022/09/08 09:25:54;;;;;;;3.38;1.60;;;18.00;99.90;;;17.44;100.00;96965.38;4992813;28;20872;-79
2022/09/08 09:28:54;;;;;;;2.53;1.10;;;18.10;99.90;;;17.38;100.00;96967.38;4992693;28;20914;-79
2022/09/08 09:32:04;;;;;;;3.53;1.30;;;18.00;99.90;;;17.39;100.00;96965.50;4990653;28;20477;-80
2022/09/08 09:35:25;;;;;;;2.67;1.35;;;18.00;99.90;;;17.38;100.00;96969.25;4992118;28;20402;-79
2022/09/08 09:38:31;;;;;;;4.53;1.10;;;18.00;99.90;;;17.38;100.00;96972.72;4979478;28;20912;-75
2022/09/08 09:41:38;;;;;;;2.75;1.15;;;18.00;99.90;;;17.32;100.00;96968.59;4985721;28;20430;-78
2022/09/08 09:44:30;;;;;;;2.40;1.20;;;18.00;99.90;;;17.25;100.00;96964.75;4991966;28;20493;-81
2022/09/08 09:47:31;;;;;;;2.97;1.30;;;18.00;99.90;;;17.27;100.00;96965.25;4992073;28;20872;-75
2022/09/08 09:50:47;;;;;;;2.53;1.27;;;18.00;99.90;;;17.58;100.00;96955.41;4989431;28;20455;-74
2022/09/08 09:53:40;;;;;;;2.15;1.10;;;18.20;99.90;;;17.78;100.00;96960.25;4931452;29;20841;-75
2022/09/08 09:56:59;;;;;;;3.15;1.00;;;18.30;99.90;;;18.00;97.33;96959.41;4992072;28;20398;-76
2022/09/08 10:00:19;;;;;;;3.47;1.13;;;18.60;99.90;;;18.30;97.06;96959.66;4992017;28;20414;-73
2022/09/08 10:03:33;;;;;;;4.40;1.00;;;18.80;99.90;;;18.71;87.20;96956.66;4991464;28;20406;-76
2022/09/08 10:06:25;;;;;;;3.72;1.00;;;19.20;99.90;;;19.17;82.10;96946.06;4991707;28;20402;-83
2022/09/08 10:09:51;;;;;;;4.28;1.10;;;19.60;99.90;;;19.25;93.10;96942.59;4991801;28;20418;-78
2022/09/08 10:12:55;;;;;;;1.83;0.82;;;19.70;99.90;;;19.23;90.41;96944.84;4991746;28;20403;-75
2022/09/08 10:16:10;;;;;;;1.67;0.90;;;19.90;99.90;;;19.48;86.15;96948.59;4991917;28;20402;-78
2022/09/08 10:19:31;;;;;;;2.70;1.48;;;20.00;99.90;;;19.47;86.87;96947.00;4961336;28;20429;-78
2022/09/08 10:22:47;;;;;;;1.48;0.90;;;20.00;99.90;;;19.34;85.63;96948.75;4949358;28;20424;-76
2022/09/08 10:26:16;;;;;;;1.40;0.90;;;20.00;99.90;;;19.34;89.17;96947.97;4991609;28;20512;-76
2022/09/08 10:29:25;;;;;;;2.70;1.03;;;19.90;99.90;;;19.28;76.67;96943.88;4984064;28;20410;-76
2022/09/08 10:32:29;;;;;;;2.90;1.00;;;19.90;99.90;;;19.38;79.52;96937.41;4991471;28;20411;-77
2022/09/08 10:35:33;;;;;;;1.70;0.90;;;19.90;99.90;;;19.36;85.69;96943.06;4991091;28;20417;-77
2022/09/08 10:38:28;;;;;;;1.30;0.90;;;19.90;99.90;;;19.52;87.86;96946.88;4991025;28;20797;-77
2022/09/08 10:41:46;;;;;;;2.63;1.30;;;20.00;99.90;;;19.40;82.95;96952.06;4991406;28;20454;-76
2022/09/08 10:44:28;;;;;;;2.07;0.97;;;19.90;99.90;;;19.35;78.26;96949.53;4975221;28;20876;-77
2022/09/08 10:47:54;;;;;;;3.22;1.05;;;19.90;99.90;;;19.36;83.25;96956.50;4991214;28;20457;-76
2022/09/08 10:50:24;;;;;;;1.70;0.97;;;19.90;99.90;;;19.49;81.80;96958.22;4991208;28;20426;-77